sensor_id;sensor_type;location;lat;lon;timestamp;temperature;humidity
34008;DHT22;41085;51.594;7.138;2022-12-19T04:30:52;14.20;85.00
34008;DHT22;41085;51.594;7.138;2022-12-19T04:34:53;14.20;85.20
34008;DHT22;41085;51.594;7.138;2022-12-19T04:38:53;16.50;86.90
34008;DHT22;41085;51.594;7.138;2022-12-19T04:42:54;14.60;85.70
34008;DHT22;41085;51.594;7.138;2022-12-19T04:46:55;16.40;87.10
34008;DHT22;41085;51.594;7.138;2022-12-19T04:50:55;14.90;86.70
34008;DHT22;41085;51.594;7.138;2022-12-19T04:54:56;16.30;87.70
34008;DHT22;41085;51.594;7.138;2022-12-19T04:58:58;13.60;85.80
34008;DHT22;41085;51.594;7.138;2022-12-19T05:02:59;17.10;87.60
34008;DHT22;41085;51.594;7.138;2022-12-19T05:06:59;16.10;87.40
34008;DHT22;41085;51.594;7.138;2022-12-19T05:11:01;17.00;87.90
34008;DHT22;41085;51.594;7.138;2022-12-19T05:15:02;15.10;86.80
34008;DHT22;41085;51.594;7.138;2022-12-19T05:19:03;14.40;86.70
34008;DHT22;41085;51.594;7.138;2022-12-19T05:23:03;17.50;88.70
34008;DHT22;41085;51.594;7.138;2022-12-19T05:27:04;16.80;88.60
34008;DHT22;41085;51.594;7.138;2022-12-19T05:31:16;13.90;86.60
34008;DHT22;41085;51.594;7.138;2022-12-19T05:35:17;15.20;87.10
34008;DHT22;41085;51.594;7.138;2022-12-19T05:39:18;16.20;87.90
34008;DHT22;41085;51.594;7.138;2022-12-19T05:43:18;13.90;86.20
34008;DHT22;41085;51.594;7.138;2022-12-19T05:47:19;16.90;88.40
34008;DHT22;41085;51.594;7.138;2022-12-19T05:51:19;15.00;86.80
34008;DHT22;41085;51.594;7.138;2022-12-19T05:55:20;16.20;88.10
34008;DHT22;41085;51.594;7.138;2022-12-19T05:59:21;14.40;86.70
34008;DHT22;41085;51.594;7.138;2022-12-19T06:03:21;14.10;86.40
34008;DHT22;41085;51.594;7.138;2022-12-19T06:07:22;15.20;87.30
34008;DHT22;41085;51.594;7.138;2022-12-19T06:11:22;16.10;87.90
34008;DHT22;41085;51.594;7.138;2022-12-19T06:15:23;16.00;87.70
34008;DHT22;41085;51.594;7.138;2022-12-19T06:19:24;15.70;87.40
34008;DHT22;41085;51.594;7.138;2022-12-19T06:23:25;14.30;86.70
34008;DHT22;41085;51.594;7.138;2022-12-19T06:27:26;16.50;88.00
34008;DHT22;41085;51.594;7.138;2022-12-19T06:31:26;15.90;87.80
34008;DHT22;41085;51.594;7.138;2022-12-19T06:35:27;17.20;88.70
34008;DHT22;41085;51.594;7.138;2022-12-19T06:39:27;14.20;86.90
34008;DHT22;41085;51.594;7.138;2022-12-19T06:43:28;13.80;86.50
34008;DHT22;41085;51.594;7.138;2022-12-19T06:47:29;17.10;88.90
34008;DHT22;41085;51.594;7.138;2022-12-19T06:51:29;17.30;89.10
34008;DHT22;41085;51.594;7.138;2022-12-19T06:55:30;17.60;89.40
34008;DHT22;41085;51.594;7.138;2022-12-19T06:59:31;15.50;87.90
34008;DHT22;41085;51.594;7.138;2022-12-19T07:03:35;15.50;87.20
34008;DHT22;41085;51.594;7.138;2022-12-19T07:07:37;15.90;88.90
34008;DHT22;41085;51.594;7.138;2022-12-19T07:11:38;15.90;87.80
34008;DHT22;41085;51.594;7.138;2022-12-19T07:15:39;15.60;87.30
34008;DHT22;41085;51.594;7.138;2022-12-19T07:19:39;14.00;86.10
34008;DHT22;41085;51.594;7.138;2022-12-19T07:23:42;16.00;87.20
34008;DHT22;41085;51.594;7.138;2022-12-19T07:27:44;14.30;86.30
34008;DHT22;41085;51.594;7.138;2022-12-19T07:31:45;16.00;87.30
34008;DHT22;41085;51.594;7.138;2022-12-19T07:35:45;14.40;86.60
34008;DHT22;41085;51.594;7.138;2022-12-19T07:39:47;15.40;87.20
34008;DHT22;41085;51.594;7.138;2022-12-19T07:43:48;14.50;86.40
34008;DHT22;41085;51.594;7.138;2022-12-19T07:47:48;15.50;87.20
34008;DHT22;41085;51.594;7.138;2022-12-19T07:51:49;14.90;86.80
34008;DHT22;41085;51.594;7.138;2022-12-19T07:55:50;16.30;87.50
34008;DHT22;41085;51.594;7.138;2022-12-19T07:59:51;14.30;86.00
34008;DHT22;41085;51.594;7.138;2022-12-19T08:03:52;16.00;87.10
34008;DHT22;41085;51.594;7.138;2022-12-19T08:07:55;17.70;88.10
34008;DHT22;41085;51.594;7.138;2022-12-19T08:11:57;17.20;88.10
34008;DHT22;41085;51.594;7.138;2022-12-19T08:16:02;15.20;86.80
34008;DHT22;41085;51.594;7.138;2022-12-19T08:20:03;14.40;86.40
34008;DHT22;41085;51.594;7.138;2022-12-19T08:24:04;14.00;85.70
34008;DHT22;41085;51.594;7.138;2022-12-19T08:28:05;14.40;85.20
34008;DHT22;41085;51.594;7.138;2022-12-19T08:32:05;16.80;88.90
34008;DHT22;41085;51.594;7.138;2022-12-19T08:36:08;16.30;87.00
34008;DHT22;41085;51.594;7.138;2022-12-19T08:40:10;14.40;85.70
34008;DHT22;41085;51.594;7.138;2022-12-19T08:44:11;14.40;85.90
34008;DHT22;41085;51.594;7.138;2022-12-19T08:48:12;16.20;86.90
34008;DHT22;41085;51.594;7.138;2022-12-19T08:52:13;15.90;86.80
34008;DHT22;41085;51.594;7.138;2022-12-19T08:56:19;17.70;88.10
34008;DHT22;41085;51.594;7.138;2022-12-19T09:00:19;15.50;86.40
34008;DHT22;41085;51.594;7.138;2022-12-19T09:04:21;14.40;87.70
34008;DHT22;41085;51.594;7.138;2022-12-19T09:08:22;14.50;88.80
34008;DHT22;41085;51.594;7.138;2022-12-19T09:12:23;16.90;90.00
34008;DHT22;41085;51.594;7.138;2022-12-19T09:16:25;15.70;90.00
34008;DHT22;41085;51.594;7.138;2022-12-19T09:20:26;14.70;89.70
34008;DHT22;41085;51.594;7.138;2022-12-19T09:24:27;16.50;90.50
34008;DHT22;41085;51.594;7.138;2022-12-19T09:28:27;14.50;90.20
34008;DHT22;41085;51.594;7.138;2022-12-19T09:32:28;15.40;90.50
34008;DHT22;41085;51.594;7.138;2022-12-19T09:36:29;15.00;90.30
34008;DHT22;41085;51.594;7.138;2022-12-19T09:40:41;15.90;90.70
34008;DHT22;41085;51.594;7.138;2022-12-19T09:48:46;16.60;90.80
34008;DHT22;41085;51.594;7.138;2022-12-19T09:52:56;17.40;91.00
34008;DHT22;41085;51.594;7.138;2022-12-19T09:57:01;14.60;90.30
34008;DHT22;41085;51.594;7.138;2022-12-19T10:01:21;16.40;90.80
34008;DHT22;41085;51.594;7.138;2022-12-19T10:05:32;14.70;90.30
34008;DHT22;41085;51.594;7.138;2022-12-19T10:09:34;16.50;90.80
34008;DHT22;41085;51.594;7.138;2022-12-19T10:31:33;14.40;90.60
34008;DHT22;41085;51.594;7.138;2022-12-19T10:35:41;14.60;90.70
34008;DHT22;41085;51.594;7.138;2022-12-19T10:40:13;14.50;90.70
34008;DHT22;41085;51.594;7.138;2022-12-19T10:44:14;14.60;90.60
34008;DHT22;41085;51.594;7.138;2022-12-19T10:48:18;15.20;91.00
34008;DHT22;41085;51.594;7.138;2022-12-19T10:52:44;15.20;90.90
34008;DHT22;41085;51.594;7.138;2022-12-19T10:56:45;14.70;90.80
34008;DHT22;41085;51.594;7.138;2022-12-19T11:01:20;14.60;90.80
34008;DHT22;41085;51.594;7.138;2022-12-19T11:05:45;14.50;90.50
34008;DHT22;41085;51.594;7.138;2022-12-19T11:09:47;14.70;90.60
34008;DHT22;41085;51.594;7.138;2022-12-19T11:13:48;15.80;91.10
34008;DHT22;41085;51.594;7.138;2022-12-19T11:17:49;14.50;90.60
34008;DHT22;41085;51.594;7.138;2022-12-19T11:21:49;14.50;90.60
34008;DHT22;41085;51.594;7.138;2022-12-19T11:26:02;14.20;90.60
34008;DHT22;41085;51.594;7.138;2022-12-19T11:30:17;14.70;90.60
34008;DHT22;41085;51.594;7.138;2022-12-19T11:34:20;14.60;90.50
34008;DHT22;41085;51.594;7.138;2022-12-19T11:38:45;16.40;91.00
34008;DHT22;41085;51.594;7.138;2022-12-19T11:51:50;14.80;90.60
34008;DHT22;41085;51.594;7.138;2022-12-19T11:55:54;14.70;90.40
34008;DHT22;41085;51.594;7.138;2022-12-19T11:59:55;14.60;90.40
34008;DHT22;41085;51.594;7.138;2022-12-19T12:29:16;17.50;91.40
34008;DHT22;41085;51.594;7.138;2022-12-19T12:46:22;14.10;89.00
34008;DHT22;41085;51.594;7.138;2022-12-19T12:50:24;14.40;89.60
34008;DHT22;41085;51.594;7.138;2022-12-19T12:54:32;14.80;89.40
34008;DHT22;41085;51.594;7.138;2022-12-19T13:15:42;14.60;88.80
34008;DHT22;41085;51.594;7.138;2022-12-19T13:20:43;15.90;90.00
34008;DHT22;41085;51.594;7.138;2022-12-19T13:24:20;14.30;89.70
34008;DHT22;41085;51.594;7.138;2022-12-19T13:28:35;14.60;89.00
34008;DHT22;41085;51.594;7.138;2022-12-19T13:36:49;15.80;89.50
34008;DHT22;41085;51.594;7.138;2022-12-19T13:40:59;14.40;88.20
34008;DHT22;41085;51.594;7.138;2022-12-19T13:45:10;16.50;89.20
34008;DHT22;41085;51.594;7.138;2022-12-19T13:49:28;14.40;88.10
34008;DHT22;41085;51.594;7.138;2022-12-19T13:53:29;14.60;87.90
34008;DHT22;41085;51.594;7.138;2022-12-19T13:57:30;16.80;89.50
34008;DHT22;41085;51.594;7.138;2022-12-19T14:01:36;15.00;88.90
34008;DHT22;41085;51.594;7.138;2022-12-19T14:05:39;17.10;90.00
34008;DHT22;41085;51.594;7.138;2022-12-19T14:09:42;16.70;90.10
34008;DHT22;41085;51.594;7.138;2022-12-19T14:13:50;13.80;87.80
34008;DHT22;41085;51.594;7.138;2022-12-19T14:18:18;14.60;88.50
34008;DHT22;41085;51.594;7.138;2022-12-19T14:22:21;15.70;89.30
34008;DHT22;41085;51.594;7.138;2022-12-19T14:26:28;14.60;88.70
34008;DHT22;41085;51.594;7.138;2022-12-19T14:30:32;16.50;89.80
34008;DHT22;41085;51.594;7.138;2022-12-19T14:34:34;15.10;89.10
34008;DHT22;41085;51.594;7.138;2022-12-19T14:38:36;14.80;89.10
34008;DHT22;41085;51.594;7.138;2022-12-19T14:42:37;15.70;89.40
34008;DHT22;41085;51.594;7.138;2022-12-19T14:47:11;17.50;90.40
34008;DHT22;41085;51.594;7.138;2022-12-19T14:51:13;14.30;89.00
34008;DHT22;41085;51.594;7.138;2022-12-19T14:55:30;16.30;90.10
34008;DHT22;41085;51.594;7.138;2022-12-19T14:59:40;14.30;88.80
34008;DHT22;41085;51.594;7.138;2022-12-19T15:03:49;14.20;88.90
34008;DHT22;41085;51.594;7.138;2022-12-19T15:07:54;14.40;89.20
34008;DHT22;41085;51.594;7.138;2022-12-19T15:12:07;16.00;89.90
34008;DHT22;41085;51.594;7.138;2022-12-19T15:17:03;14.10;89.20
34008;DHT22;41085;51.594;7.138;2022-12-19T15:21:12;14.30;89.10
34008;DHT22;41085;51.594;7.138;2022-12-19T15:25:14;15.40;89.80
34008;DHT22;41085;51.594;7.138;2022-12-19T15:29:16;14.70;89.40
34008;DHT22;41085;51.594;7.138;2022-12-19T15:33:16;15.80;90.10
34008;DHT22;41085;51.594;7.138;2022-12-19T15:37:17;14.80;89.50
34008;DHT22;41085;51.594;7.138;2022-12-19T15:41:22;14.30;89.40
34008;DHT22;41085;51.594;7.138;2022-12-19T15:45:24;16.70;90.20
34008;DHT22;41085;51.594;7.138;2022-12-19T15:49:24;14.10;89.20
34008;DHT22;41085;51.594;7.138;2022-12-19T15:53:29;16.50;90.30
34008;DHT22;41085;51.594;7.138;2022-12-19T15:57:35;14.20;87.00
34008;DHT22;41085;51.594;7.138;2022-12-19T16:01:38;14.20;87.90
34008;DHT22;41085;51.594;7.138;2022-12-19T16:05:38;14.40;88.70
34008;DHT22;41085;51.594;7.138;2022-12-19T16:09:39;15.50;89.60
34008;DHT22;41085;51.594;7.138;2022-12-19T16:13:40;14.50;89.10
34008;DHT22;41085;51.594;7.138;2022-12-19T16:17:41;15.60;89.80
34008;DHT22;41085;51.594;7.138;2022-12-19T16:21:41;16.30;90.10
34008;DHT22;41085;51.594;7.138;2022-12-19T16:25:44;16.40;90.20
34008;DHT22;41085;51.594;7.138;2022-12-19T16:29:45;14.00;88.80
34008;DHT22;41085;51.594;7.138;2022-12-19T16:33:45;14.10;89.30
34008;DHT22;41085;51.594;7.138;2022-12-19T16:37:46;14.00;89.00
34008;DHT22;41085;51.594;7.138;2022-12-19T16:41:47;13.60;88.90
34008;DHT22;41085;51.594;7.138;2022-12-19T16:45:48;17.50;90.50
34008;DHT22;41085;51.594;7.138;2022-12-19T16:49:48;13.60;88.80
34008;DHT22;41085;51.594;7.138;2022-12-19T16:53:51;16.30;90.20
34008;DHT22;41085;51.594;7.138;2022-12-19T16:57:54;15.60;89.90
34008;DHT22;41085;51.594;7.138;2022-12-19T17:01:55;16.30;89.70
34008;DHT22;41085;51.594;7.138;2022-12-19T17:05:57;15.40;88.70
34008;DHT22;41085;51.594;7.138;2022-12-19T17:09:57;13.90;88.30
34008;DHT22;41085;51.594;7.138;2022-12-19T17:14:09;15.70;89.70
34008;DHT22;41085;51.594;7.138;2022-12-19T17:18:27;14.90;89.30
34008;DHT22;41085;51.594;7.138;2022-12-19T17:22:29;14.30;88.70
34008;DHT22;41085;51.594;7.138;2022-12-19T17:26:30;15.80;90.00
34008;DHT22;41085;51.594;7.138;2022-12-19T17:30:30;15.20;89.80
34008;DHT22;41085;51.594;7.138;2022-12-19T17:34:32;15.80;89.80
34008;DHT22;41085;51.594;7.138;2022-12-19T17:38:33;12.70;87.70
34008;DHT22;41085;51.594;7.138;2022-12-19T17:42:33;15.40;89.30
34008;DHT22;41085;51.594;7.138;2022-12-19T17:46:36;15.70;89.20
34008;DHT22;41085;51.594;7.138;2022-12-19T17:50:39;15.60;88.90
34008;DHT22;41085;51.594;7.138;2022-12-19T17:54:40;16.00;89.00
34008;DHT22;41085;51.594;7.138;2022-12-19T17:58:41;16.60;89.70
34008;DHT22;41085;51.594;7.138;2022-12-19T18:02:42;15.40;88.70
34008;DHT22;41085;51.594;7.138;2022-12-19T18:06:44;13.70;87.50
34008;DHT22;41085;51.594;7.138;2022-12-19T18:10:44;15.40;88.60
34008;DHT22;41085;51.594;7.138;2022-12-19T18:14:45;15.80;89.00
34008;DHT22;41085;51.594;7.138;2022-12-19T18:18:46;16.90;89.50
34008;DHT22;41085;51.594;7.138;2022-12-19T18:22:47;17.10;89.60
34008;DHT22;41085;51.594;7.138;2022-12-19T18:26:47;15.90;88.80
34008;DHT22;41085;51.594;7.138;2022-12-19T18:30:48;15.80;88.80
34008;DHT22;41085;51.594;7.138;2022-12-19T18:34:49;15.40;88.20
34008;DHT22;41085;51.594;7.138;2022-12-19T18:38:51;13.80;87.40
34008;DHT22;41085;51.594;7.138;2022-12-19T18:42:51;17.00;89.40
34008;DHT22;41085;51.594;7.138;2022-12-19T18:46:52;14.00;87.70
34008;DHT22;41085;51.594;7.138;2022-12-19T18:50:54;15.20;88.40
34008;DHT22;41085;51.594;7.138;2022-12-19T18:54:55;13.80;87.40
34008;DHT22;41085;51.594;7.138;2022-12-19T18:58:56;15.10;88.30
34008;DHT22;41085;51.594;7.138;2022-12-19T19:03:00;17.20;89.40
34008;DHT22;41085;51.594;7.138;2022-12-19T19:07:01;16.30;88.80
34008;DHT22;41085;51.594;7.138;2022-12-19T19:11:01;15.30;88.40
34008;DHT22;41085;51.594;7.138;2022-12-19T19:15:02;14.80;88.10
34008;DHT22;41085;51.594;7.138;2022-12-19T19:19:05;14.20;87.90
34008;DHT22;41085;51.594;7.138;2022-12-19T19:23:09;15.90;88.60
34008;DHT22;41085;51.594;7.138;2022-12-19T19:27:10;14.50;87.70
34008;DHT22;41085;51.594;7.138;2022-12-19T19:31:13;15.80;88.70
34008;DHT22;41085;51.594;7.138;2022-12-19T19:35:17;15.80;88.40
34008;DHT22;41085;51.594;7.138;2022-12-19T19:39:18;15.20;88.00
34008;DHT22;41085;51.594;7.138;2022-12-19T19:43:19;15.20;88.30
34008;DHT22;41085;51.594;7.138;2022-12-19T19:47:24;16.10;88.80
34008;DHT22;41085;51.594;7.138;2022-12-19T19:51:25;15.90;88.30
34008;DHT22;41085;51.594;7.138;2022-12-19T19:55:27;17.00;89.30
34008;DHT22;41085;51.594;7.138;2022-12-19T19:59:29;15.50;88.20
34008;DHT22;41085;51.594;7.138;2022-12-19T20:03:30;14.10;87.40
34008;DHT22;41085;51.594;7.138;2022-12-19T20:07:31;14.70;88.10
34008;DHT22;41085;51.594;7.138;2022-12-19T20:11:31;14.70;87.90
34008;DHT22;41085;51.594;7.138;2022-12-19T20:15:32;16.10;88.90
34008;DHT22;41085;51.594;7.138;2022-12-19T20:19:32;15.80;88.70
34008;DHT22;41085;51.594;7.138;2022-12-19T20:23:33;16.10;88.80
34008;DHT22;41085;51.594;7.138;2022-12-19T20:27:34;13.80;87.50
34008;DHT22;41085;51.594;7.138;2022-12-19T20:31:34;16.40;88.90
34008;DHT22;41085;51.594;7.138;2022-12-19T20:35:35;15.10;87.80
34008;DHT22;41085;51.594;7.138;2022-12-19T20:39:36;15.80;88.40
34008;DHT22;41085;51.594;7.138;2022-12-19T20:43:37;13.60;87.10
34008;DHT22;41085;51.594;7.138;2022-12-19T20:47:37;17.00;89.10
34008;DHT22;41085;51.594;7.138;2022-12-19T20:51:39;16.50;89.10
34008;DHT22;41085;51.594;7.138;2022-12-19T20:55:39;16.90;89.20
34008;DHT22;41085;51.594;7.138;2022-12-19T20:59:40;15.70;88.40
34008;DHT22;41085;51.594;7.138;2022-12-19T21:03:41;16.20;88.80
34008;DHT22;41085;51.594;7.138;2022-12-19T21:07:42;15.60;88.20
34008;DHT22;41085;51.594;7.138;2022-12-19T21:11:47;14.40;90.00
34008;DHT22;41085;51.594;7.138;2022-12-19T21:15:53;14.10;87.50
34008;DHT22;41085;51.594;7.138;2022-12-19T21:19:53;17.60;89.20
34008;DHT22;41085;51.594;7.138;2022-12-19T21:23:54;16.20;88.70
34008;DHT22;41085;51.594;7.138;2022-12-19T21:27:55;15.80;88.70
34008;DHT22;41085;51.594;7.138;2022-12-19T21:31:55;15.70;88.20
34008;DHT22;41085;51.594;7.138;2022-12-19T21:35:56;14.10;87.30
34008;DHT22;41085;51.594;7.138;2022-12-19T21:39:57;15.70;88.00
34008;DHT22;41085;51.594;7.138;2022-12-19T21:43:58;15.80;88.50
34008;DHT22;41085;51.594;7.138;2022-12-19T21:47:59;15.40;87.90
34008;DHT22;41085;51.594;7.138;2022-12-19T21:52:00;13.90;87.20
34008;DHT22;41085;51.594;7.138;2022-12-19T21:56:02;16.00;88.40
34008;DHT22;41085;51.594;7.138;2022-12-19T22:00:04;13.70;86.80
34008;DHT22;41085;51.594;7.138;2022-12-19T22:04:09;14.20;87.10
34008;DHT22;41085;51.594;7.138;2022-12-19T22:08:10;15.50;87.80
34008;DHT22;41085;51.594;7.138;2022-12-19T22:12:11;16.10;88.50
34008;DHT22;41085;51.594;7.138;2022-12-19T22:16:12;14.00;87.10
34008;DHT22;41085;51.594;7.138;2022-12-19T22:20:13;14.70;87.10
34008;DHT22;41085;51.594;7.138;2022-12-19T22:24:15;14.20;87.50
34008;DHT22;41085;51.594;7.138;2022-12-19T22:28:16;14.00;87.10
34008;DHT22;41085;51.594;7.138;2022-12-19T22:32:16;13.70;87.20
34008;DHT22;41085;51.594;7.138;2022-12-19T22:36:18;15.00;87.70
34008;DHT22;41085;51.594;7.138;2022-12-19T22:40:19;15.10;87.60
34008;DHT22;41085;51.594;7.138;2022-12-19T22:44:23;16.50;88.60
34008;DHT22;41085;51.594;7.138;2022-12-19T22:48:23;14.60;87.50
34008;DHT22;41085;51.594;7.138;2022-12-19T22:52:24;16.00;88.40
34008;DHT22;41085;51.594;7.138;2022-12-19T22:56:27;16.30;88.50
34008;DHT22;41085;51.594;7.138;2022-12-19T23:00:27;16.10;88.10
34008;DHT22;41085;51.594;7.138;2022-12-19T23:04:28;15.10;87.80
34008;DHT22;41085;51.594;7.138;2022-12-19T23:08:28;16.00;88.20
34008;DHT22;41085;51.594;7.138;2022-12-19T23:12:29;15.00;87.80
34008;DHT22;41085;51.594;7.138;2022-12-19T23:16:29;15.90;88.40
34008;DHT22;41085;51.594;7.138;2022-12-19T23:20:30;14.20;87.60
34008;DHT22;41085;51.594;7.138;2022-12-19T23:24:30;14.20;87.70
34008;DHT22;41085;51.594;7.138;2022-12-19T23:28:31;15.40;88.20
34008;DHT22;41085;51.594;7.138;2022-12-19T23:32:32;16.00;88.20
34008;DHT22;41085;51.594;7.138;2022-12-19T23:36:32;14.20;87.40
34008;DHT22;41085;51.594;7.138;2022-12-19T23:40:33;14.80;87.70
34008;DHT22;41085;51.594;7.138;2022-12-19T23:44:34;14.20;87.50
34008;DHT22;41085;51.594;7.138;2022-12-19T23:48:34;15.20;88.00
34008;DHT22;41085;51.594;7.138;2022-12-19T23:52:35;14.10;87.20
34008;DHT22;41085;51.594;7.138;2022-12-19T23:56:36;15.70;88.50
